桜島噴火2013 8 19

今日の桜島。噴火の様子を10倍速でアップしました。昨日までで今年500回噴火しています。※動画元の(桜島噴火2013 8 19)より抜粋
作成日:2013-08-19
チャンネル:宮田 明


その他の動画

Supported by Rakuten Developers


■桜島 噴火を含むネットの声…
※動画に関係ないものが表示される場合があります。

■【噴火に関する火山観測報】[10:59] ▼火山:桜島(南岳山頂火口) ▼日時:2021-01-26 10:50 ▼現象:爆発(今年10回目) ※第2報 (気象庁) https://t.co/jtMYljMAvP - by ⚠警戒情報:地震・津波・火山・台風
■RJFK 250200Z 16005KT 110V190 9999 FEW030 BKN040 13/08 Q1022 RMK 1CU030 5CU040 A3021 VOLCANIC ASH CLOUD S 鹿児島空港11時 M… https://t.co/gwFx0qKHYG - by すぐやる!ピカピカの0点(令和)☂️☀️🌈六四天安門事件😊
■【桜島 噴火に関する火山観測報 第2報】 [火山]桜島 [日時]2021年01月26日10時50分 [現象]爆発 https://t.co/Dw7FJuh33K - by 地震・津波・火山情報
■新燃岳噴火から今日で10年ですね。 活発な噴火活動が続き、周辺地域は降灰やガラスが割れたりする被害も発生しました。 ちなみに新燃岳の灰は軽めで、 宮崎市も降灰が観測されましたっけ… (桜島のは重い https... - by スペ子🌠🌾🌴❤️
■漏瑚がキレて桜島の如く噴火しそうだったから、バケツで水掛けたら余計にキレてさ! 今、激おこぷんぷん丸なんだけど…俺、どうしたらいい? - by 虎.杖悠仁
■【降灰予報(定時)】[11:00] [桜島] 現在、噴火警戒レベル3(入山規制)です。噴火が発生した場合には、26日21時から24時までは火口から東方向に降灰が予想されます。 (気象庁) https://t.co/XjPUcBEbdP - by ⚠警戒情報:地震・津波・火山・台風